CheckWX is a tool to help pilots better visualize weather data.  It is not intended as a substitute for an official pre-flight weather briefing.

22:56:58 UTC

KDNS METAR
Denison Municipal Airport
Denison, Iowa, USA
Current

22 mins ago

KDNS 222235Z AUTO 00000KT 10SM CLR 01/M05 A3013 RMK AO2
Observed
Nov-22 @ 22:35 UTC
Visibility
10 SM
Flight Rules
VFR
Cloud Levels
  • Clear skies
Temperature
C / 34°F
Dewpoint
-5°C / 23°F
Humidity
65%
Altimeter
30.13" Hg
Pressure
1020.32 hPa
Previous

42 mins ago

KDNS 222215Z AUTO 00000KT 10SM CLR 02/M06 A3013 RMK AO2
Observed
Nov-22 @ 22:15 UTC
Visibility
10 SM
Flight Rules
VFR
Cloud Levels
  • Clear skies
Temperature
C / 36°F
Dewpoint
-6°C / 21°F
Humidity
56%
Altimeter
30.13" Hg
Pressure
1020.32 hPa
Previous

1 hour ago

KDNS 222155Z AUTO 00000KT 10SM CLR 02/M06 A3013 RMK AO2
Observed
Nov-22 @ 21:55 UTC
Visibility
10 SM
Flight Rules
VFR
Cloud Levels
  • Clear skies
Temperature
C / 36°F
Dewpoint
-6°C / 21°F
Humidity
56%
Altimeter
30.13" Hg
Pressure
1020.32 hPa